MET'MAP v2.0
soon released !

Expected late october,
this new version will be
more efficient, smarter,
and hosted on a brand new
server x3 powerfull...
...and still free !


Not compatible ?
Try the mobile version !

LOG IN : | Subscribe | Disclaimer | Who is Orbifly ? |
ICAO code :

TAF - EGHK Penzance Heliport - 21 Nov 2019 01:43 UTC
Data Sources :     NOAA   


- Airport Elevation : 14 ft
- IATA code : PZE
- No reported NOTAMs.


EGHK - Penzance Heliport

Latest METAR recorded : 2012/10/31 16:50 EGHK 311650Z 28006KT 9999 -RA SCT010 BKN014 09/07 Q0981 RERA BECMG SCT015
NO TAF


MET'MAP, your aeronautical weather chart ! - Copyright ORBIFLY December 2007

Programming & Development : Alexandra Zaïnal
Co-Developer : Marc-Olivier Méhu
Technical & hardware support : Manuel Goepfert
Concept & Financing : Baudouin d'Aumeries